Home > Products > Valid Products > TAF

000
FTUS45 KFGZ 041120
TAFFLG
TAF
KFLG 041120Z 0412/0512 22009KT P6SM FEW080 SCT100
     FM041800 22012G18KT P6SM SCT040 BKN100
      TEMPO 0420/0424 VRB15G25KT -TSRA BKN030 BKN060CB
     FM050230 22006KT P6SM SCT040 SCT100=



000
FTUS45 KFGZ 041120
TAFPGA
TAF
KPGA 041120Z 0412/0512 18007KT P6SM BKN110
     FM041900 20010G15KT P6SM SCT090 BKN250 PROB30 0421/0502
      VRB15G25KT -TSRA BKN070CB
     FM050200 20008KT P6SM SCT100=



000
FTUS45 KFGZ 041120
TAFFLG
TAF
KFLG 041120Z 0412/0512 22009KT P6SM FEW080 SCT100
     FM041800 22012G18KT P6SM SCT040 BKN100
      TEMPO 0420/0424 VRB15G25KT -TSRA BKN030 BKN060CB
     FM050230 22006KT P6SM SCT040 SCT100=



000
FTUS45 KFGZ 041120
TAFPGA
TAF
KPGA 041120Z 0412/0512 18007KT P6SM BKN110
     FM041900 20010G15KT P6SM SCT090 BKN250 PROB30 0421/0502
      VRB15G25KT -TSRA BKN070CB
     FM050200 20008KT P6SM SCT100=



000
FTUS45 KFGZ 041120
TAFINW
TAF
KINW 041120Z 0412/0512 18005KT P6SM BKN120
     FM042000 21012KT P6SM SCT080 BKN140
      TEMPO 0421/0501 VRB20G30KT 4SM TSRA BKN040CB
     FM050300 VRB06KT P6SM SCT080 BKN120=



000
FTUS45 KFGZ 041120
TAFINW
TAF
KINW 041120Z 0412/0512 18005KT P6SM BKN120
     FM042000 21012KT P6SM SCT080 BKN140
      TEMPO 0421/0501 VRB20G30KT 4SM TSRA BKN040CB
     FM050300 VRB06KT P6SM SCT080 BKN120=



000
FTUS45 KFGZ 040536
TAFINW
TAF
KINW 040536Z 0406/0506 13008KT P6SM SCT100 BKN200
     FM042000 21012KT P6SM SCT080 BKN200
      TEMPO 0421/0501 VRB20G30KT 5SM TSRA BKN040CB
     FM050300 VRB06KT P6SM SCT080 BKN120=



000
FTUS45 KFGZ 040536
TAFINW
TAF
KINW 040536Z 0406/0506 13008KT P6SM SCT100 BKN200
     FM042000 21012KT P6SM SCT080 BKN200
      TEMPO 0421/0501 VRB20G30KT 5SM TSRA BKN040CB
     FM050300 VRB06KT P6SM SCT080 BKN120=



000
FTUS45 KFGZ 040536
TAFPGA
TAF
KPGA 040536Z 0406/0506 18018G23KT P6SM SCT100
     FM040700 18007KT P6SM FEW100
     FM041900 20010G15KT P6SM SCT090 BKN250 PROB30 0421/0502
      VRB15G25KT -TSRA BKN070CB
     FM050200 20008KT P6SM SCT100=



000
FTUS45 KFGZ 040536
TAFPGA
TAF
KPGA 040536Z 0406/0506 18018G23KT P6SM SCT100
     FM040700 18007KT P6SM FEW100
     FM041900 20010G15KT P6SM SCT090 BKN250 PROB30 0421/0502
      VRB15G25KT -TSRA BKN070CB
     FM050200 20008KT P6SM SCT100=



000
FTUS45 KFGZ 040536
TAFFLG
TAF
KFLG 040536Z 0406/0506 22009KT P6SM SCT012 BKN100
      TEMPO 0406/0410 BKN012
     FM041800 22011G18KT P6SM SCT030 SCT100 BKN200
      TEMPO 0420/0424 VRB15G25KT -TSRA BKN030 BKN060CB
     FM050230 22006KT P6SM SCT040 SCT100=



000
FTUS45 KFGZ 040536
TAFFLG
TAF
KFLG 040536Z 0406/0506 22009KT P6SM SCT012 BKN100
      TEMPO 0406/0410 BKN012
     FM041800 22011G18KT P6SM SCT030 SCT100 BKN200
      TEMPO 0420/0424 VRB15G25KT -TSRA BKN030 BKN060CB
     FM050230 22006KT P6SM SCT040 SCT100=



000
FTUS45 KFGZ 040506 AAA
TAFPGA
TAF AMD
KPGA 040506Z 0405/0424 18018G23KT P6SM SCT100
     FM040700 18007KT P6SM FEW100
     FM041900 20010G15KT P6SM FEW090 BKN250=



000
FTUS45 KFGZ 040506 AAA
TAFPGA
TAF AMD
KPGA 040506Z 0405/0424 18018G23KT P6SM SCT100
     FM040700 18007KT P6SM FEW100
     FM041900 20010G15KT P6SM FEW090 BKN250=



000
FTUS45 KFGZ 040504 AAA
TAFFLG
TAF AMD
KFLG 040504Z 0405/0424 22009KT P6SM SCT015 BKN100
      TEMPO 0405/0409 BKN015
     FM041800 22011G18KT P6SM FEW050 BKN200=



000
FTUS45 KFGZ 040504 AAA
TAFFLG
TAF AMD
KFLG 040504Z 0405/0424 22009KT P6SM SCT015 BKN100
      TEMPO 0405/0409 BKN015
     FM041800 22011G18KT P6SM FEW050 BKN200=



000
FTUS45 KFGZ 040011 AAA
TAFINW
TAF AMD
KINW 040011Z 0400/0424 11011KT P6SM -TSRA FEW030 BKN080CB OVC250
      TEMPO 0400/0403 VRB15G25KT 4SM TSRA SCT030 BKN080CB
     FM040300 VRB06KT P6SM SCT100 BKN200
     FM042000 21012KT P6SM SCT080 BKN200 PROB30 0420/0424 VRB15G25KT
      5SM -TSRA BKN040CB=



000
FTUS45 KFGZ 040011 AAA
TAFINW
TAF AMD
KINW 040011Z 0400/0424 11011KT P6SM -TSRA FEW030 BKN080CB OVC250
      TEMPO 0400/0403 VRB15G25KT 4SM TSRA SCT030 BKN080CB
     FM040300 VRB06KT P6SM SCT100 BKN200
     FM042000 21012KT P6SM SCT080 BKN200 PROB30 0420/0424 VRB15G25KT
      5SM -TSRA BKN040CB=



000
FTUS45 KFGZ 032320
TAFINW
TAF
KINW 032320Z 0400/0424 11011G18KT P6SM -SHRA FEW030 BKN080 OVC250
      TEMPO 0400/0403 VRB15G23KT -TSRA SCT030 BKN080CB
     FM040300 VRB06KT P6SM SCT100 BKN200
     FM042000 21012KT P6SM SCT080 BKN200 PROB30 0420/0424 VRB15G25KT
      5SM -TSRA BKN040CB=



000
FTUS45 KFGZ 032320
TAFFLG
TAF
KFLG 032320Z 0400/0424 22012G19KT P6SM FEW060 SCT100
     FM040300 22004KT P6SM FEW040 BKN200
     FM041800 22011G18KT P6SM FEW050 BKN200=



000
FTUS45 KFGZ 032320
TAFPGA
TAF
KPGA 032320Z 0400/0424 23010G15KT P6SM FEW100
     FM040200 VRB06KT P6SM SCT100
     FM041900 20010G15KT P6SM FEW090 BKN250=



000
FTUS45 KFGZ 032257 AAB
TAFPGA
TAF AMD
KPGA 032257Z 0323/0418 22010G15KT P6SM SCT100 BKN200
     FM040200 VRB06KT P6SM BKN100=



000
FTUS45 KFGZ 032250 AAB
TAFINW
TAF AMD
KINW 032250Z 0323/0418 21012KT P6SM SCT060 BKN100 OVC250
      TEMPO 0323/0402 VRB15G25KT 3SM -TSRA BKN070CB
     FM040200 22006KT P6SM SCT080 BKN200=



000
FTUS45 KFGZ 032250 AAB
TAFINW
TAF AMD
KINW 032250Z 0323/0418 21012KT P6SM SCT060 BKN100 OVC250
      TEMPO 0323/0402 VRB15G25KT 3SM -TSRA BKN070CB
     FM040200 22006KT P6SM SCT080 BKN200=



000
FTUS45 KFGZ 032003 AAA
TAFFLG
TAF AMD
KFLG 032003Z 0320/0418 22012G19KT P6SM BKN050 BKN100
     FM040200 22004KT P6SM SCT050 BKN200=



000
FTUS45 KFGZ 031913 AAA
TAFINW
TAF AMD
KINW 031913Z 0319/0418 VRB10G25KT 5SM -TSRA SCT070 BKN250CB
     FM032000 21012KT P6SM SCT060 BKN100 OVC250
      TEMPO 0320/0324 VRB15G25KT -TSRA BKN070CB
     FM040200 22006KT P6SM SCT080 BKN200=



000
FTUS45 KFGZ 031913 AAA
TAFINW
TAF AMD
KINW 031913Z 0319/0418 VRB10G25KT 5SM -TSRA SCT070 BKN250CB
     FM032000 21012KT P6SM SCT060 BKN100 OVC250
      TEMPO 0320/0324 VRB15G25KT -TSRA BKN070CB
     FM040200 22006KT P6SM SCT080 BKN200=



000
FTUS45 KFGZ 031904 AAA
TAFPGA
TAF AMD
KPGA 031904Z 0319/0418 23010G15KT P6SM SCT100 BKN200
     FM040200 VRB06KT P6SM BKN100=



000
FTUS45 KFGZ 031720
TAFFLG
TAF
KFLG 031720Z 0318/0418 21012G19KT P6SM BKN050 BKN100
     FM040200 22004KT P6SM SCT050 BKN200=



000
FTUS45 KFGZ 031720
TAFPGA
TAF
KPGA 031720Z 0318/0418 VRB05KT P6SM SCT110 BKN200
     FM031900 30010G15KT P6SM SCT100 BKN200
     FM040200 VRB06KT P6SM BKN100=



000
FTUS45 KFGZ 031720
TAFINW
TAF
KINW 031720Z 0318/0418 VRB05KT P6SM SCT120 SCT250
     FM032000 21012KT P6SM SCT060 BKN100 OVC250
      TEMPO 0320/0324 VRB15G25KT -TSRA BKN070CB
     FM040200 22006KT P6SM SCT080 BKN200=



000
FTUS45 KFGZ 031705 AAA
TAFFLG
TAF AMD
KFLG 031705Z 0317/0412 21012G19KT P6SM BKN050 BKN100
     FM040200 22004KT P6SM SCT050 BKN200=



000
FTUS45 KFGZ 031705 AAA
TAFFLG
TAF AMD
KFLG 031705Z 0317/0412 21012G19KT P6SM BKN050 BKN100
     FM040200 22004KT P6SM SCT050 BKN200=



000
FTUS45 KFGZ 031120
TAFFLG
TAF
KFLG 031120Z 0312/0412 VRB04KT P6SM FEW050 SCT200
     FM031800 22012G19KT P6SM BKN050 BKN100
     FM040200 VRB04KT P6SM SCT050 BKN200=



000
FTUS45 KFGZ 031120
TAFFLG
TAF
KFLG 031120Z 0312/0412 VRB04KT P6SM FEW050 SCT200
     FM031800 22012G19KT P6SM BKN050 BKN100
     FM040200 VRB04KT P6SM SCT050 BKN200=



000
FTUS45 KFGZ 031120
TAFPGA
TAF
KPGA 031120Z 0312/0412 20005KT P6SM SCT110 BKN200
     FM031900 30010G15KT P6SM SCT100 BKN200
     FM040200 23007KT P6SM BKN100=



000
FTUS45 KFGZ 031120
TAFINW
TAF
KINW 031120Z 0312/0412 14005KT P6SM SCT120 SCT250
     FM032000 21010KT P6SM SCT060 BKN080 OVC250
      TEMPO 0320/0324 VRB15G25KT -TSRA BKN070CB
     FM040200 22006KT P6SM SCT080 BKN200=



000
FTUS45 KFGZ 031120
TAFINW
TAF
KINW 031120Z 0312/0412 14005KT P6SM SCT120 SCT250
     FM032000 21010KT P6SM SCT060 BKN080 OVC250
      TEMPO 0320/0324 VRB15G25KT -TSRA BKN070CB
     FM040200 22006KT P6SM SCT080 BKN200=



000
FTUS45 KFGZ 031120
TAFPGA
TAF
KPGA 031120Z 0312/0412 20005KT P6SM SCT110 BKN200
     FM031900 30010G15KT P6SM SCT100 BKN200
     FM040200 23007KT P6SM BKN100=



000
FTUS45 KFGZ 030540
TAFPGA
TAF
KPGA 030540Z 0306/0406 23009KT P6SM SCT100 SCT200
     FM031900 30010G15KT P6SM BKN090 BKN250
     FM040200 23007KT P6SM BKN100=



000
FTUS45 KFGZ 030540
TAFFLG
TAF
KFLG 030540Z 0306/0406 VRB04KT P6SM FEW250
     FM031800 22010KT P6SM BKN040 BKN100
     FM040200 VRB04KT P6SM SCT050 BKN200=



000
FTUS45 KFGZ 030540
TAFINW
TAF
KINW 030540Z 0306/0406 VRB05KT P6SM SCT120 BKN250
     FM032000 21010KT P6SM SCT060 BKN080 OVC250 PROB30 0320/0402
      VRB15G30KT 4SM -TSRA BKN060CB
     FM040400 26006KT P6SM SCT080 BKN200=



000
FTUS45 KFGZ 030540
TAFPGA
TAF
KPGA 030540Z 0306/0406 23009KT P6SM SCT100 SCT200
     FM031900 30010G15KT P6SM BKN090 BKN250
     FM040200 23007KT P6SM BKN100=



000
FTUS45 KFGZ 030540
TAFINW
TAF
KINW 030540Z 0306/0406 VRB05KT P6SM SCT120 BKN250
     FM032000 21010KT P6SM SCT060 BKN080 OVC250 PROB30 0320/0402
      VRB15G30KT 4SM -TSRA BKN060CB
     FM040400 26006KT P6SM SCT080 BKN200=



000
FTUS45 KFGZ 030540
TAFFLG
TAF
KFLG 030540Z 0306/0406 VRB04KT P6SM FEW250
     FM031800 22010KT P6SM BKN040 BKN100
     FM040200 VRB04KT P6SM SCT050 BKN200=



000
FTUS45 KFGZ 030254 AAA
TAFPGA
TAF AMD
KPGA 030254Z 0303/0324 19010G16KT P6SM BKN100 OVC250
     FM030400 18005KT P6SM SCT100 SCT200
     FM031900 30010G15KT P6SM BKN090 BKN250=



000
FTUS45 KFGZ 022320
TAFINW
TAF
KINW 022320Z 0300/0324 24010G15KT P6SM -SHRA BKN120 OVC250
     FM030300 VRB05KT P6SM SCT120 BKN250
     FM032000 21010KT P6SM SCT060 BKN070 OVC250 PROB30 0320/0324
      VRB15G30KT 4SM -TSRA BKN060CB=



000
FTUS45 KFGZ 022320
TAFPGA
TAF
KPGA 022320Z 0300/0324 VRB06KT P6SM SCT100 SCT250
     FM031900 30010G15KT P6SM BKN090 BKN250=



000
FTUS45 KFGZ 022320
TAFPGA
TAF
KPGA 022320Z 0300/0324 VRB06KT P6SM SCT100 SCT250
     FM031900 30010G15KT P6SM BKN090 BKN250=



000
FTUS45 KFGZ 022320
TAFINW
TAF
KINW 022320Z 0300/0324 24010G15KT P6SM -SHRA BKN120 OVC250
     FM030300 VRB05KT P6SM SCT120 BKN250
     FM032000 21010KT P6SM SCT060 BKN070 OVC250 PROB30 0320/0324
      VRB15G30KT 4SM -TSRA BKN060CB=



000
FTUS45 KFGZ 022320
TAFFLG
TAF
KFLG 022320Z 0300/0324 21010G15KT P6SM FEW070 SCT250
     FM030200 VRB04KT P6SM FEW250
     FM031800 22010KT P6SM BKN040 BKN100=



000
FTUS45 KFGZ 022320
TAFFLG
TAF
KFLG 022320Z 0300/0324 21010G15KT P6SM FEW070 SCT250
     FM030200 VRB04KT P6SM FEW250
     FM031800 22010KT P6SM BKN040 BKN100=



000
FTUS45 KFGZ 022238 AAD
TAFINW
TAF AMD
KINW 022238Z 0223/0318 24010G18KT P6SM SCT060 SCT250
     FM030300 19005KT P6SM FEW250=



000
FTUS45 KFGZ 022205 AAC
TAFINW
TAF AMD
KINW 022205Z 0222/0318 23010KT P6SM -SHRA FEW070 FEW090 OVC110
     FM030300 19005KT P6SM FEW090 SCT110=



000
FTUS45 KFGZ 022059 AAB
TAFINW
TAF AMD
KINW 022059Z 0221/0318 13008KT P6SM SCT060 SCT250
      TEMPO 0221/0222 VRB13G30KT 4SM -TSRA BKN050CB
     FM030300 19005KT P6SM FEW250=



000
FTUS45 KFGZ 021913 AAA
TAFINW
TAF AMD
KINW 021913Z 0219/0318 VRB06KT P6SM SCT050 SCT120 BKN250
      TEMPO 0219/0221 VRB13G30KT 4SM -TSRA BKN050CB
     FM022100 20010KT P6SM SCT060 SCT250
     FM030300 19005KT P6SM FEW250=



000
FTUS45 KFGZ 021720
TAFPGA
TAF
KPGA 021720Z 0218/0318 VRB06KT P6SM SCT100 SCT250=



000
FTUS45 KFGZ 021720
TAFINW
TAF
KINW 021720Z 0218/0318 VRB06KT P6SM SCT250
     FM022100 20010KT P6SM SCT060 SCT250
     FM030300 19005KT P6SM FEW250=



000
FTUS45 KFGZ 021720
TAFINW
TAF
KINW 021720Z 0218/0318 VRB06KT P6SM SCT250
     FM022100 20010KT P6SM SCT060 SCT250
     FM030300 19005KT P6SM FEW250=



000
FTUS45 KFGZ 021720
TAFFLG
TAF
KFLG 021720Z 0218/0318 21010KT P6SM SCT050 SCT250
     FM030200 VRB03KT P6SM FEW250=



000
FTUS45 KFGZ 021720
TAFPGA
TAF
KPGA 021720Z 0218/0318 VRB06KT P6SM SCT100 SCT250=



000
FTUS45 KFGZ 021720
TAFFLG
TAF
KFLG 021720Z 0218/0318 21010KT P6SM SCT050 SCT250
     FM030200 VRB03KT P6SM FEW250=



000
FTUS45 KFGZ 021135
TAFINW
TAF
KINW 021135Z 0212/0312 VRB06KT P6SM SCT250
     FM022000 20010KT P6SM SCT060 SCT250
     FM030300 19005KT P6SM FEW250=



000
FTUS45 KFGZ 021135
TAFINW
TAF
KINW 021135Z 0212/0312 VRB06KT P6SM SCT250
     FM022000 20010KT P6SM SCT060 SCT250
     FM030300 19005KT P6SM FEW250=



000
FTUS45 KFGZ 021135
TAFFLG
TAF
KFLG 021135Z 0212/0312 VRB04KT P6SM FEW250
     FM022000 21010KT P6SM SCT050 SCT250
     FM030200 VRB03KT P6SM FEW250=



000
FTUS45 KFGZ 021135
TAFPGA
TAF
KPGA 021135Z 0212/0312 VRB06KT P6SM SCT100 SCT250=



000
FTUS45 KFGZ 021135
TAFPGA
TAF
KPGA 021135Z 0212/0312 VRB06KT P6SM SCT100 SCT250=



000
FTUS45 KFGZ 021135
TAFFLG
TAF
KFLG 021135Z 0212/0312 VRB04KT P6SM FEW250
     FM022000 21010KT P6SM SCT050 SCT250
     FM030200 VRB03KT P6SM FEW250=



000
FTUS45 KFGZ 012330
TAFFLG
TAF
KFLG 012330Z 0200/0224 22010G15KT P6SM FEW070 SCT250
     FM020100 VRB04KT P6SM FEW250
     FM022000 21010KT P6SM SCT050 SCT250=



000
FTUS45 KFGZ 012330
TAFINW
TAF
KINW 012330Z 0200/0224 22008KT P6SM FEW080 SCT250
      TEMPO 0200/0201 VRB15G25KT P6SM -TSRA BKN050CB
     FM020300 VRB06KT P6SM SCT250
     FM022000 20010KT P6SM SCT060 SCT250=



000
FTUS45 KFGZ 012330
TAFPGA
TAF
KPGA 012330Z 0200/0224 VRB06KT P6SM FEW010 FEW250=



000
FTUS45 KFGZ 012202 AAA
TAFINW
TAF AMD
KINW 012202Z 0122/0218 22008KT P6SM SCT120 BKN200
     FM020300 VRB06KT P6SM FEW080 FEW120 SCT200=



000
FTUS45 KFGZ 012202 AAA
TAFINW
TAF AMD
KINW 012202Z 0122/0218 22008KT P6SM SCT120 BKN200
     FM020300 VRB06KT P6SM FEW080 FEW120 SCT200=



000
FTUS45 KFGZ 011720
TAFINW
TAF
KINW 011720Z 0118/0218 VRB05KT P6SM FEW080 FEW200
     FM012000 22010G15KT P6SM SCT080 BKN120 BKN200
     FM020300 VRB06KT P6SM FEW080 SCT120 SCT200=



000
FTUS45 KFGZ 011720
TAFPGA
TAF
KPGA 011720Z 0118/0218 VRB06KT P6SM SCT090=



000
FTUS45 KFGZ 011720
TAFFLG
TAF
KFLG 011720Z 0118/0218 21010G18KT P6SM SCT050 SCT250
     FM020020 VRB03KT P6SM FEW050=



000
FTUS45 KFGZ 011720
TAFPGA
TAF
KPGA 011720Z 0118/0218 VRB06KT P6SM SCT090=



000
FTUS45 KFGZ 011720
TAFFLG
TAF
KFLG 011720Z 0118/0218 21010G18KT P6SM SCT050 SCT250
     FM020020 VRB03KT P6SM FEW050=



000
FTUS45 KFGZ 011720
TAFINW
TAF
KINW 011720Z 0118/0218 VRB05KT P6SM FEW080 FEW200
     FM012000 22010G15KT P6SM SCT080 BKN120 BKN200
     FM020300 VRB06KT P6SM FEW080 SCT120 SCT200=



    US Dept of Commerce
    National Oceanic and Atmospheric Administration
    National Weather Service
    1325 East West Highway
    Silver Spring, MD 20910
    Page Author: NWS Internet Services Team
Disclaimer
Information Quality
Credits
Glossary
Privacy Policy
Freedom of Information Act (FOIA)
About Us
Career Opportunities